Station: Kiama  

  Atmospheric Gas Attenuation - ITU Rec 676-11   ----------------- dB/100km -----------------
Date Time Temp RH % AH g/m3 Dew Point Wind Direction Speed kph Gust kph Barometer mB Rainfall Since 9am 24GHz 47GHz 76GHz 122GHz 134GHz 241GHz
08/05 12:30 19.2 41 6.76 5.6 19 33 1013.1 0 15.5 21.7 30.6 79.9 70.0 239.6
08/05 12:20 19 40 6.52 5.1 22 28 1013.1 0 15.0 21.4 29.8 77.8 67.4 230.6
08/05 12:10 19.2 39 6.43 5.2 24 28 1013.1 0 14.8 21.2 29.4 76.8 66.2 226.4
08/05 12:00 19.2 42 6.92 6 17 33 1013.1 0 15.8 21.9 31.1 81.4 71.8 246.1
08/05 11:50 18.6 41 6.52 5.1 17 20 1013.1 0 15.0 21.5 30.0 78.2 67.8 231.7
08/05 11:40 18.6 41 6.52 5.1 19 26 1013.1 0 15.0 21.5 30.0 78.2 67.8 231.7
08/05 11:30 18.6 41 6.52 5.1 17 32 1013.1 0 15.0 21.5 30.0 78.2 67.8 231.7
08/05 11:20 18.7 41 6.56 5.2 17 24 1013.1 0 15.1 21.5 30.1 78.5 68.1 233.0
08/05 11:10 18.3 41 6.41 4.8 22 30 1013.1 0 14.8 21.4 29.7 77.5 66.8 228.1
08/05 11:00 18.2 44 6.84 5.8 13 22 1013.1 0 15.7 22.0 31.2 81.6 71.8 245.9
08/05 10:50 18.2 43 6.68 5.4 17 24 1013.1 0 15.3 21.8 30.7 80.1 70.0 239.3
08/05 10:40 17.8 44 6.68 5.4 17 22 1013.1 0 15.3 21.9 30.8 80.5 70.3 240.5
08/05 10:30 17.6 45 6.75 5.5 17 28 1013.1 0 15.5 22.1 31.1 81.4 71.3 244.0
08/05 10:20 17.6 45 6.75 5.5 11 13 1013.1 0 15.5 22.1 31.1 81.4 71.3 244.0
08/05 10:10 17.2 46 6.74 5.5 13 17 1013.1 0 15.5 22.1 31.3 81.7 71.5 244.8
08/05 10:00 16.9 47 6.76 5.5 19 30 1013.1 0 15.5 22.2 31.4 82.2 72.0 246.5
08/05 09:50 16.4 47 6.56 5 24 28 1013.1 0 15.1 22.1 30.9 80.8 70.1 239.7
08/05 09:40 16.1 49 6.72 5.4 24 35 1013.1 0 15.5 22.4 31.6 82.6 72.3 247.3
08/05 09:30 15.5 49 6.48 4.8 28 39 1013.1 0 15.0 22.2 31.0 80.9 70.0 239.0
08/05 09:20 15.3 50 6.53 4.9 24 32 1013.1 0 15.1 22.3 31.2 81.6 70.7 241.7
08/05 09:10 15.1 50 6.45 4.7 22 28 1013.1 0 15.0 22.2 31.0 81.0 70.0 239.0
08/05 09:00 14.9 51 6.5 4.9 26 43 1013.1 0 15.1 22.4 31.3 81.7 70.7 241.7
08/05 08:50 14.6 50 6.26 4.5 28 37 1013.1 0 14.6 22.1 30.5 79.7 68.1 232.5
08/05 08:40 14.5 51 6.34 4.7 26 33 1013.1 0 14.8 22.2 30.8 80.5 69.2 236.1
08/05 08:30 14.2 52 6.35 4.5 20 37 1013.1 0 14.8 22.3 31.0 80.9 69.5 237.4
08/05 08:20 14 52 6.27 4.5 22 32 1013.1 0 14.6 22.2 30.8 80.4 68.8 234.6
08/05 08:10 13.7 53 6.28 4.3 20 30 1013.1 0 14.7 22.3 30.9 80.8 69.1 235.9
08/05 08:00 13.5 53 6.2 4.1 19 33 1013.1 0 14.5 22.2 30.7 80.2 68.3 233.1
08/05 07:50 13.4 53 6.16 4 17 20 1013.1 0 14.4 22.2 30.6 79.9 67.9 231.7
08/05 07:40 13.1 53 6.05 3.7 22 32 1013.1 0 14.2 22.1 30.3 79.1 66.9 227.9
08/05 07:30 13 53 6.01 3.7 19 41 1013.1 0 14.1 22.1 30.2 78.8 66.5 226.5
08/05 07:20 12.8 54 6.05 3.7 19 32 1013.1 0 14.2 22.2 30.4 79.4 67.1 228.7
08/05 07:10 12.6 54 5.97 3.5 20 30 1013.1 0 14.0 22.1 30.2 78.8 66.3 225.9
08/05 07:00 12.5 54 5.94 3.5 26 43 1013.1 0 14.0 22.1 30.1 78.6 66.0 224.9
08/05 06:50 12.3 54 5.86 3.2 22 33 1013.1 0 13.8 22.0 29.9 78.0 65.2 222.1
08/05 06:40 12.3 54 5.86 3.2 28 33 1013.1 0 13.8 22.0 29.9 78.0 65.2 222.1
08/05 06:30 12.1 54 5.79 3.1 24 37 1013.1 0 13.7 22.0 29.7 77.5 64.6 219.6
08/05 06:20 12.1 53 5.68 3 19 24 1013.1 0 13.4 21.8 29.3 76.4 63.2 215.0
08/05 06:10 12.1 53 5.68 3 28 32 1013.1 0 13.4 21.8 29.3 76.4 63.2 215.0
08/05 06:00 12 54 5.76 3 26 44 1013.1 0 13.6 22.0 29.7 77.3 64.3 218.6
08/05 05:50 12 54 5.76 3 22 26 1013.1 0 13.6 22.0 29.7 77.3 64.3 218.6
08/05 05:40 11.8 54 5.68 2.8 20 28 1013.1 0 13.4 21.9 29.4 76.7 63.5 215.8
08/05 05:30 11.9 53 5.61 2.6 22 43 1013.1 0 13.3 21.8 29.1 76.0 62.5 212.5
08/05 05:20 11.9 54 5.72 2.9 28 35 1013.1 0 13.5 21.9 29.5 77.0 63.9 217.2
08/05 05:10 11.6 54 5.61 2.6 15 19 1013.1 0 13.3 21.8 29.2 76.2 62.8 213.3
08/05 05:00 11.7 54 5.65 2.7 20 32 1013.1 0 13.4 21.9 29.4 76.5 63.2 214.7
08/05 04:50 11.6 53 5.51 2.3 17 22 1013.1 0 13.1 21.7 28.9 75.3 61.6 209.1
08/05 04:40 11.6 53 5.51 2.3 22 26 1013.1 0 13.1 21.7 28.9 75.3 61.6 209.1
08/05 04:30 11.4 54 5.54 2.4 20 37 1013.1 0 13.2 21.8 29.1 75.7 62.1 210.9
08/05 04:20 11.4 54 5.54 2.4 20 24 1013.1 0 13.2 21.8 29.1 75.7 62.1 210.9
08/05 04:10 11.4 53 5.44 2.1 15 19 1013.1 0 13.0 21.6 28.7 74.8 60.9 206.6
08/05 04:00 11.3 54 5.51 2.3 19 33 1013.1 0 13.1 21.8 29.0 75.5 61.8 209.8
08/05 03:50 11.5 53 5.48 2.2 19 26 1013.1 0 13.0 21.7 28.8 75.1 61.3 208.1
08/05 03:40 11.4 53 5.44 2.1 22 28 1013.1 0 13.0 21.6 28.7 74.8 60.9 206.6
08/05 03:30 11.3 54 5.51 2.3 22 35 1013.1 0 13.1 21.8 29.0 75.5 61.8 209.8
08/05 03:20 11.1 54 5.44 2.1 22 30 1013.1 0 13.0 21.7 28.8 75.0 61.1 207.4
08/05 03:10 11.1 54 5.44 2.1 24 30 1013.1 0 13.0 21.7 28.8 75.0 61.1 207.4
08/05 03:00 11.1 54 5.44 2.2 22 32 1013.1 0 13.0 21.7 28.8 75.0 61.1 207.4
08/05 02:50 11.2 52 5.27 1.9 24 32 1013.1 0 12.6 21.4 28.1 73.3 59.0 199.9
08/05 02:40 11 53 5.31 1.8 22 28 1013.1 0 12.7 21.5 28.4 73.9 59.6 202.1
08/05 02:30 10.8 54 5.34 1.9 19 28 1013.1 0 12.8 21.6 28.5 74.3 60.1 203.9
08/05 02:20 10.7 53 5.21 1.7 15 24 1013.1 0 12.5 21.5 28.1 73.2 58.6 198.6
08/05 02:10 10.6 54 5.27 1.7 19 20 1013.1 0 12.6 21.6 28.4 73.8 59.4 201.4
08/05 02:00 10.4 54 5.21 1.5 13 24 1013.1 0 12.5 21.5 28.2 73.4 58.9 199.4
08/05 01:50 10.3 53 5.08 1.1 15 20 1013.1 0 12.2 21.4 27.8 72.3 57.4 194.1
08/05 01:40 10.2 53 5.04 1 13 17 1013.1 0 12.1 21.3 27.7 72.0 56.9 192.7
08/05 01:30 10.2 52 4.95 0.8 11 19 1013.1 0 11.9 21.2 27.3 71.1 55.9 188.9
08/05 01:20 10.2 52 4.95 0.8 13 19 1013.1 0 11.9 21.2 27.3 71.1 55.9 188.9
08/05 01:10 10.3 51 4.89 0.6 11 15 1013.1 0 11.8 21.1 27.1 70.4 55.1 186.1
08/05 01:00 10.4 50 4.82 0.4 15 22 1013.1 0 11.7 21.0 26.8 69.7 54.2 182.9
08/05 00:50 10.4 50 4.82 0.4 17 19 1013.1 0 11.7 21.0 26.8 69.7 54.2 182.9
08/05 00:40 10.4 49 4.72 0.1 15 20 1013.1 0 11.5 20.8 26.4 68.7 53.0 178.8
08/05 00:20 11.1 47 4.74 0.2 17 26 1013.1 0 11.5 20.7 26.3 68.3 52.8 178.1
08/05 00:10 11.2 46 4.66 0 30 35 1013.1 0 11.3 20.5 26.0 67.5 51.8 174.6
08/05 00:00 11.3 46 4.69 0.1 28 43 1013.1 0 11.4 20.6 26.0 67.7 52.0 175.6
07/05 23:50 11.4 46 4.72 0.2 28 43 1013.1 0 11.4 20.6 26.1 67.9 52.3 176.6
07/05 23:40 11.2 47 4.76 0.3 22 32 1013.1 0 11.5 20.7 26.3 68.4 52.9 178.7
07/05 23:30 11.3 46 4.69 0.1 22 35 1013.1 0 11.4 20.6 26.0 67.7 52.0 175.6
07/05 23:20 11.2 46 4.66 0 22 28 1013.1 0 11.3 20.5 26.0 67.5 51.8 174.6
07/05 23:10 11.3 46 4.69 0.1 24 28 1013.1 0 11.4 20.6 26.0 67.7 52.0 175.6
07/05 23:00 11.5 46 4.75 0.3 28 39 1013.1 0 11.5 20.6 26.2 68.1 52.6 177.6
07/05 22:50 11.6 46 4.78 0.3 32 37 1013.1 0 11.5 20.6 26.3 68.3 52.9 178.6
07/05 22:40 11.6 45 4.68 0 22 26 1013.1 0 11.3 20.5 25.9 67.3 51.7 174.5
07/05 22:30 11.4 46 4.72 0.2 24 41 1013.1 0 11.4 20.6 26.1 67.9 52.3 176.6
07/05 22:20 11.5 45 4.65 0 20 28 1013.1 0 11.3 20.5 25.8 67.1 51.5 173.5
07/05 22:10 11.5 46 4.75 0.3 20 26 1013.1 0 11.5 20.6 26.2 68.1 52.6 177.6
07/05 22:00 11.6 45 4.68 0.1 28 41 1013.1 0 11.3 20.5 25.9 67.3 51.7 174.5
07/05 21:50 11.5 45 4.65 0 19 26 1013.1 0 11.3 20.5 25.8 67.1 51.5 173.5
07/05 21:40 11.4 46 4.72 0.2 17 26 1013.1 0 11.4 20.6 26.1 67.9 52.3 176.6
07/05 21:30 11.6 45 4.68 0.1 26 41 1013.1 0 11.3 20.5 25.9 67.3 51.7 174.5
07/05 21:20 11.9 44 4.66 0 35 46 1013.1 0 11.3 20.4 25.7 66.9 51.3 173.1
07/05 21:10 11.8 44 4.63 -0.1 26 33 1013.1 0 11.2 20.4 25.7 66.7 51.0 172.0
07/05 21:00 11.7 44 4.6 -0.1 20 35 1013.1 0 11.2 20.3 25.6 66.5 50.7 171.0
07/05 20:50 11.9 44 4.66 0 30 35 1013.1 0 11.3 20.4 25.7 66.9 51.3 173.1
07/05 20:40 11.7 45 4.71 0.1 20 28 1013.1 0 11.4 20.5 26.0 67.5 52.0 175.5
07/05 20:30 11.6 46 4.78 0.4 19 26 1013.1 0 11.5 20.6 26.3 68.3 52.9 178.6
07/05 20:20 11.7 46 4.81 0.4 22 28 1013.1 0 11.6 20.6 26.3 68.4 53.2 179.6
07/05 20:10 12.1 44 4.72 0.2 22 28 1013.1 0 11.4 20.4 25.9 67.3 51.9 175.1
07/05 20:00 11.8 45 4.74 0.3 19 39 1013.1 0 11.5 20.5 26.1 67.7 52.3 176.5
07/05 19:50 12.2 43 4.64 0 20 30 1013.1 0 11.2 20.3 25.6 66.4 50.9 171.6

Last Refresh: 08-May-2026 12:09:34

Bureau of Meteorology